Time;durP1;ratioP1;P1;durP2;ratioP2;P2;SDS_P1;SDS_P2;PMS_P1;PMS_P2;Temp;Humidity;BMP_temperature;BMP_pressure;BME280_temperature;BME280_humidity;BME280_pressure;Samples;Min_cycle;Max_cycle;Signal;HPM_P1;HPM_P2
2022/04/13 00:00:58;;;;;;;2.90;1.45;;;;;;;;;;5032113;28;20040;-37
2022/04/13 00:03:24;;;;;;;1.08;0.80;;;;;;;;;;5032165;28;20075;-36
2022/04/13 00:05:49;;;;;;;0.80;0.73;;;;;;;;;;5032157;28;20467;-36
2022/04/13 00:08:14;;;;;;;1.63;1.02;;;;;;;;;;5032029;28;20109;-36
2022/04/13 00:10:40;;;;;;;0.95;0.80;;;;;;;;;;5032197;28;20041;-36
2022/04/13 00:13:06;;;;;;;3.30;0.98;;;;;;;;;;5032063;28;20028;-36
2022/04/13 00:15:32;;;;;;;1.02;0.90;;;;;;;;;;5031605;28;20464;-37
2022/04/13 00:17:58;;;;;;;1.17;0.77;;;;;;;;;;5032064;28;20108;-37
2022/04/13 00:20:23;;;;;;;3.28;0.95;;;;;;;;;;5031703;28;20420;-36
2022/04/13 00:22:49;;;;;;;0.70;0.60;;;;;;;;;;5030099;28;20075;-36
2022/04/13 00:25:14;;;;;;;0.80;0.80;;;;;;;;;;5031907;28;20495;-36
2022/04/13 00:27:40;;;;;;;1.65;0.90;;;;;;;;;;5031885;28;20021;-36
2022/04/13 00:30:06;;;;;;;5.18;1.50;;;;;;;;;;5030311;28;20029;-37
2022/04/13 00:32:33;;;;;;;0.77;0.77;;;;;;;;;;5031743;28;20033;-37
2022/04/13 00:35:02;;;;;;;2.05;1.05;;;;;;;;;;5031727;28;20396;-36
2022/04/13 00:37:28;;;;;;;0.80;0.80;;;;;;;;;;5031600;28;20064;-37
2022/04/13 00:39:53;;;;;;;3.65;1.02;;;;;;;;;;5031514;28;20464;-37
2022/04/13 00:42:19;;;;;;;1.25;0.95;;;;;;;;;;5031738;28;20017;-37
2022/04/13 00:44:44;;;;;;;3.63;1.25;;;;;;;;;;5031484;28;20022;-37
2022/04/13 00:47:10;;;;;;;2.90;1.38;;;;;;;;;;5031729;28;20115;-36
2022/04/13 00:49:36;;;;;;;3.70;1.20;;;;;;;;;;5031558;28;20476;-37
2022/04/13 00:52:02;;;;;;;1.40;1.17;;;;;;;;;;5030274;28;20021;-36
2022/04/13 00:54:32;;;;;;;3.65;1.27;;;;;;;;;;5029851;28;20404;-37
2022/04/13 00:56:58;;;;;;;1.77;0.93;;;;;;;;;;5031324;28;20025;-37
2022/04/13 00:59:24;;;;;;;2.38;1.40;;;;;;;;;;5031497;28;20029;-37
2022/04/13 01:01:51;;;;;;;2.38;1.20;;;;;;;;;;5031193;28;20043;-37
2022/04/13 01:04:16;;;;;;;2.85;1.08;;;;;;;;;;5031449;28;20569;-37
2022/04/13 01:06:43;;;;;;;3.60;1.27;;;;;;;;;;5031408;28;20049;-37
2022/04/13 01:09:10;;;;;;;2.55;1.10;;;;;;;;;;5031238;28;20029;-37
2022/04/13 01:11:35;;;;;;;1.40;1.30;;;;;;;;;;5031182;28;20776;-37
2022/04/13 01:14:00;;;;;;;2.00;1.40;;;;;;;;;;5029837;28;20121;-37
2022/04/13 01:16:26;;;;;;;0.75;0.75;;;;;;;;;;5030962;28;20067;-37
2022/04/13 01:18:52;;;;;;;1.38;1.20;;;;;;;;;;5031436;28;20076;-37
2022/04/13 01:21:19;;;;;;;1.42;1.23;;;;;;;;;;5031158;28;20025;-37
2022/04/13 01:23:45;;;;;;;1.40;0.90;;;;;;;;;;5030890;28;20083;-37
2022/04/13 01:26:11;;;;;;;2.85;1.00;;;;;;;;;;5031298;28;20078;-38
2022/04/13 01:28:37;;;;;;;2.70;1.40;;;;;;;;;;5031032;28;20108;-37
2022/04/13 01:31:02;;;;;;;3.22;1.00;;;;;;;;;;5030958;28;20021;-36
2022/04/13 01:33:28;;;;;;;1.98;1.42;;;;;;;;;;5030819;28;20030;-37
2022/04/13 01:35:56;;;;;;;1.48;1.05;;;;;;;;;;5034485;28;20053;-37
2022/04/13 01:38:21;;;;;;;1.70;1.10;;;;;;;;;;5034656;28;20029;-36
2022/04/13 01:40:48;;;;;;;1.73;1.00;;;;;;;;;;5034701;28;20531;-37
2022/04/13 01:43:14;;;;;;;1.15;0.68;;;;;;;;;;5034618;28;20034;-37
2022/04/13 01:45:39;;;;;;;5.28;1.27;;;;;;;;;;5034258;28;20069;-37
2022/04/13 01:48:04;;;;;;;4.63;0.98;;;;;;;;;;5034613;28;20037;-37
2022/04/13 01:50:30;;;;;;;1.67;0.77;;;;;;;;;;5034679;28;20037;-37
2022/04/13 01:52:55;;;;;;;1.13;0.77;;;;;;;;;;5034482;28;20036;-37
2022/04/13 01:55:21;;;;;;;1.25;0.82;;;;;;;;;;5034354;28;20509;-37
2022/04/13 01:57:46;;;;;;;1.08;0.77;;;;;;;;;;5034301;28;20043;-36
2022/04/13 02:00:12;;;;;;;1.30;1.20;;;;;;;;;;5034215;28;20117;-37
2022/04/13 02:02:38;;;;;;;1.15;0.90;;;;;;;;;;5034507;28;20388;-37
2022/04/13 02:05:04;;;;;;;1.73;1.02;;;;;;;;;;5034191;28;20013;-36
2022/04/13 02:07:29;;;;;;;2.13;1.13;;;;;;;;;;5034364;28;20025;-37
2022/04/13 02:09:55;;;;;;;0.85;0.80;;;;;;;;;;5034125;28;20045;-37
2022/04/13 02:12:21;;;;;;;1.17;0.68;;;;;;;;;;5034123;28;20069;-36
2022/04/13 02:14:46;;;;;;;6.13;1.10;;;;;;;;;;5033957;28;20018;-37
2022/04/13 02:17:16;;;;;;;1.30;0.90;;;;;;;;;;5033910;28;20060;-37
2022/04/13 02:19:42;;;;;;;2.17;1.27;;;;;;;;;;5034158;28;20059;-36
2022/04/13 02:22:08;;;;;;;2.78;1.25;;;;;;;;;;5034198;28;20531;-36
2022/04/13 02:24:39;;;;;;;2.63;1.38;;;;;;;;;;5033786;28;20056;-37
2022/04/13 02:27:05;;;;;;;6.13;1.83;;;;;;;;;;5033810;28;20105;-36
2022/04/13 02:29:30;;;;;;;1.85;1.13;;;;;;;;;;5034018;28;20626;-37
2022/04/13 02:31:56;;;;;;;3.47;0.95;;;;;;;;;;5034032;28;20080;-37
2022/04/13 02:34:21;;;;;;;4.97;1.15;;;;;;;;;;5033543;28;20057;-37
2022/04/13 02:36:46;;;;;;;0.80;0.77;;;;;;;;;;5032586;28;20156;-36
2022/04/13 02:39:12;;;;;;;1.85;1.08;;;;;;;;;;5033595;28;20099;-37
2022/04/13 02:41:37;;;;;;;0.70;0.60;;;;;;;;;;5033500;28;20044;-37
2022/04/13 02:44:03;;;;;;;0.95;0.80;;;;;;;;;;5033757;28;20020;-37
2022/04/13 02:46:28;;;;;;;1.33;1.05;;;;;;;;;;5032726;28;20050;-37
2022/04/13 02:48:53;;;;;;;5.72;1.92;;;;;;;;;;5033637;28;20034;-37
2022/04/13 02:51:19;;;;;;;1.80;0.98;;;;;;;;;;5033740;28;20113;-36
2022/04/13 02:53:44;;;;;;;1.45;1.08;;;;;;;;;;5033407;28;20017;-37
2022/04/13 02:56:10;;;;;;;1.90;1.38;;;;;;;;;;5033157;28;20048;-37
2022/04/13 02:58:35;;;;;;;5.10;1.60;;;;;;;;;;5033453;28;20024;-36
2022/04/13 03:01:03;;;;;;;2.05;1.60;;;;;;;;;;5033708;28;20378;-36
2022/04/13 03:03:29;;;;;;;1.58;1.00;;;;;;;;;;5032853;28;20028;-37
2022/04/13 03:05:55;;;;;;;2.28;1.35;;;;;;;;;;5033061;28;20025;-37
2022/04/13 03:08:20;;;;;;;1.15;1.05;;;;;;;;;;5033397;28;20029;-37
2022/04/13 03:10:46;;;;;;;1.27;0.90;;;;;;;;;;5032859;28;20410;-37
2022/04/13 03:13:11;;;;;;;1.63;0.90;;;;;;;;;;5033147;28;20030;-37
2022/04/13 03:15:36;;;;;;;2.20;0.90;;;;;;;;;;5033102;28;20044;-36
2022/04/13 03:18:02;;;;;;;1.27;1.10;;;;;;;;;;5032825;28;20080;-37
2022/04/13 03:20:27;;;;;;;1.63;0.88;;;;;;;;;;5033032;28;20068;-37
2022/04/13 03:22:53;;;;;;;1.33;1.20;;;;;;;;;;5032845;28;20380;-37
2022/04/13 03:25:18;;;;;;;2.00;0.75;;;;;;;;;;5032544;28;20504;-37
2022/04/13 03:27:44;;;;;;;2.28;1.13;;;;;;;;;;5032866;28;20033;-37
2022/04/13 03:30:09;;;;;;;1.10;0.93;;;;;;;;;;5032868;28;20486;-36
2022/04/13 03:32:35;;;;;;;1.20;0.90;;;;;;;;;;5032767;28;20388;-37
2022/04/13 03:35:01;;;;;;;1.33;1.05;;;;;;;;;;5032548;28;20523;-37
2022/04/13 03:37:26;;;;;;;3.08;1.92;;;;;;;;;;5032622;28;20087;-37
2022/04/13 03:39:52;;;;;;;1.52;1.38;;;;;;;;;;5032701;28;20068;-36
2022/04/13 03:42:17;;;;;;;3.33;1.08;;;;;;;;;;5032431;28;20502;-36
2022/04/13 03:44:42;;;;;;;2.08;1.35;;;;;;;;;;5032102;28;20108;-37
2022/04/13 03:47:08;;;;;;;1.08;0.90;;;;;;;;;;5032365;28;20056;-37
2022/04/13 03:49:33;;;;;;;2.85;1.20;;;;;;;;;;5032761;28;20029;-37
2022/04/13 03:51:59;;;;;;;2.58;0.93;;;;;;;;;;5032211;28;20020;-36
2022/04/13 03:54:25;;;;;;;1.25;1.05;;;;;;;;;;5032338;28;20108;-36
2022/04/13 03:56:53;;;;;;;1.10;1.00;;;;;;;;;;5031563;28;20534;-37
2022/04/13 03:59:20;;;;;;;5.10;1.45;;;;;;;;;;5032374;28;20120;-37
2022/04/13 04:01:46;;;;;;;1.42;1.30;;;;;;;;;;5031913;28;20492;-36
2022/04/13 04:04:11;;;;;;;2.00;1.08;;;;;;;;;;5032533;28;20057;-36
2022/04/13 04:06:37;;;;;;;3.85;1.48;;;;;;;;;;5032181;28;20111;-36
2022/04/13 04:09:02;;;;;;;1.17;1.08;;;;;;;;;;5030598;28;20399;-36
2022/04/13 04:11:28;;;;;;;1.48;1.30;;;;;;;;;;5031821;28;20029;-37
2022/04/13 04:13:53;;;;;;;1.30;1.13;;;;;;;;;;5030481;28;20025;-36
2022/04/13 04:16:18;;;;;;;4.70;1.17;;;;;;;;;;5031732;28;20033;-36
2022/04/13 04:18:45;;;;;;;2.25;1.23;;;;;;;;;;5032008;28;20623;-36
2022/04/13 04:21:11;;;;;;;1.75;1.30;;;;;;;;;;5031712;28;20021;-36
2022/04/13 04:23:36;;;;;;;1.63;1.38;;;;;;;;;;5031575;28;20071;-37
2022/04/13 04:26:01;;;;;;;2.95;1.00;;;;;;;;;;5031654;28;20073;-36
2022/04/13 04:28:27;;;;;;;2.25;1.98;;;;;;;;;;5031805;28;20048;-36
2022/04/13 04:30:52;;;;;;;2.00;1.17;;;;;;;;;;5031624;28;20060;-36
2022/04/13 04:33:18;;;;;;;2.35;1.25;;;;;;;;;;5031804;28;20417;-37
2022/04/13 04:35:51;;;;;;;2.33;1.52;;;;;;;;;;5031426;28;20028;-36
2022/04/13 04:38:17;;;;;;;1.02;0.95;;;;;;;;;;5031494;28;20472;-37
2022/04/13 04:40:43;;;;;;;2.00;1.15;;;;;;;;;;5031474;28;20037;-37
2022/04/13 04:43:08;;;;;;;1.38;1.10;;;;;;;;;;5031374;28;20501;-36
2022/04/13 04:45:33;;;;;;;2.60;1.40;;;;;;;;;;5031113;28;20034;-37
2022/04/13 04:48:04;;;;;;;2.05;1.13;;;;;;;;;;5031438;28;20037;-36
2022/04/13 04:50:30;;;;;;;1.90;1.30;;;;;;;;;;5031533;28;20029;-36
2022/04/13 04:52:55;;;;;;;2.72;1.20;;;;;;;;;;5031294;28;20781;-36
2022/04/13 04:55:21;;;;;;;1.45;0.93;;;;;;;;;;5031571;28;20044;-37
2022/04/13 04:57:47;;;;;;;1.48;1.27;;;;;;;;;;5031209;28;20033;-36
2022/04/13 05:00:13;;;;;;;1.42;1.00;;;;;;;;;;5031562;28;20029;-36
2022/04/13 05:02:39;;;;;;;3.30;2.15;;;;;;;;;;5031317;28;20068;-37
2022/04/13 05:05:05;;;;;;;2.05;1.35;;;;;;;;;;5031410;28;20068;-37
2022/04/13 05:07:31;;;;;;;2.03;1.10;;;;;;;;;;5031194;28;20538;-37
2022/04/13 05:09:58;;;;;;;4.55;1.40;;;;;;;;;;5035041;28;20116;-36
2022/04/13 05:12:23;;;;;;;2.22;1.20;;;;;;;;;;5035468;28;20013;-37
2022/04/13 05:14:49;;;;;;;3.70;1.80;;;;;;;;;;5033741;28;20029;-38
2022/04/13 05:17:15;;;;;;;5.03;1.30;;;;;;;;;;5034966;28;20510;-37
2022/04/13 05:19:40;;;;;;;1.77;1.27;;;;;;;;;;5035334;28;20488;-36
2022/04/13 05:22:06;;;;;;;4.75;1.58;;;;;;;;;;5033551;28;20380;-37
2022/04/13 05:24:31;;;;;;;2.22;1.30;;;;;;;;;;5034825;28;20037;-37
2022/04/13 05:26:57;;;;;;;3.90;1.52;;;;;;;;;;5035050;28;20033;-36
2022/04/13 05:29:23;;;;;;;3.30;1.45;;;;;;;;;;5035180;28;20084;-37
2022/04/13 05:31:48;;;;;;;3.50;1.10;;;;;;;;;;5033508;28;20022;-37
2022/04/13 05:34:14;;;;;;;2.00;0.93;;;;;;;;;;5035032;28;20411;-39
2022/04/13 05:36:40;;;;;;;2.33;1.15;;;;;;;;;;5034713;28;20045;-37
2022/04/13 05:39:05;;;;;;;1.40;1.30;;;;;;;;;;5034708;28;20040;-36
2022/04/13 05:41:31;;;;;;;1.30;1.20;;;;;;;;;;5034625;28;20025;-37
2022/04/13 05:43:56;;;;;;;1.40;1.30;;;;;;;;;;5034983;28;20037;-36
2022/04/13 05:46:22;;;;;;;1.52;1.20;;;;;;;;;;5034474;28;20404;-36
2022/04/13 05:48:47;;;;;;;1.50;1.15;;;;;;;;;;5034488;28;20029;-36
2022/04/13 05:51:13;;;;;;;1.52;1.10;;;;;;;;;;5033260;28;20479;-37
2022/04/13 05:53:39;;;;;;;1.92;1.20;;;;;;;;;;5034249;28;20056;-37
2022/04/13 05:56:05;;;;;;;1.85;1.23;;;;;;;;;;5034432;28;20037;-37
2022/04/13 05:58:31;;;;;;;4.35;1.50;;;;;;;;;;5034329;28;20141;-37
2022/04/13 06:00:56;;;;;;;2.83;1.35;;;;;;;;;;5034302;28;20116;-36
2022/04/13 06:03:23;;;;;;;7.22;2.00;;;;;;;;;;5034497;28;20037;-37
2022/04/13 06:05:49;;;;;;;1.77;1.30;;;;;;;;;;5034405;28;20026;-37
2022/04/13 06:08:15;;;;;;;1.70;1.58;;;;;;;;;;5034130;28;20029;-37
2022/04/13 06:10:40;;;;;;;3.05;1.38;;;;;;;;;;5032865;28;20052;-37
2022/04/13 06:13:06;;;;;;;2.17;1.30;;;;;;;;;;5034307;28;20061;-37
2022/04/13 06:15:31;;;;;;;7.82;1.65;;;;;;;;;;5033938;28;20418;-37
2022/04/13 06:17:57;;;;;;;1.90;1.20;;;;;;;;;;5034013;28;20034;-37
2022/04/13 06:20:23;;;;;;;2.78;1.55;;;;;;;;;;5033424;28;20029;-36
2022/04/13 06:22:49;;;;;;;9.38;1.80;;;;;;;;;;5033601;28;20037;-36
2022/04/13 06:25:14;;;;;;;14.13;2.55;;;;;;;;;;5034171;28;20029;-37
2022/04/13 06:27:40;;;;;;;3.60;2.20;;;;;;;;;;5034116;28;20025;-37
2022/04/13 06:30:06;;;;;;;4.55;1.70;;;;;;;;;;5033799;28;20029;-37
2022/04/13 06:32:36;;;;;;;4.18;2.40;;;;;;;;;;5033668;28;20026;-37
2022/04/13 06:35:02;;;;;;;2.38;1.50;;;;;;;;;;5033761;28;20025;-37
2022/04/13 06:37:27;;;;;;;2.03;1.60;;;;;;;;;;5033759;28;20085;-36
2022/04/13 06:39:53;;;;;;;5.75;1.77;;;;;;;;;;5033966;28;20102;-37
2022/04/13 06:42:22;;;;;;;1.45;1.23;;;;;;;;;;5033890;28;20034;-37
2022/04/13 06:44:47;;;;;;;3.00;2.20;;;;;;;;;;5033185;28;20556;-37
2022/04/13 06:47:13;;;;;;;2.22;1.40;;;;;;;;;;5033798;28;20109;-36
2022/04/13 06:49:39;;;;;;;1.73;1.35;;;;;;;;;;5033443;28;20465;-37
2022/04/13 06:52:04;;;;;;;2.70;1.25;;;;;;;;;;5033376;28;20036;-37
2022/04/13 06:54:30;;;;;;;7.22;1.73;;;;;;;;;;5033527;28;20017;-37
2022/04/13 06:56:56;;;;;;;2.97;1.48;;;;;;;;;;5031980;28;20451;-37
2022/04/13 06:59:22;;;;;;;2.38;1.40;;;;;;;;;;5033306;28;20060;-36
2022/04/13 07:01:47;;;;;;;3.70;2.10;;;;;;;;;;5033045;28;20361;-37
2022/04/13 07:04:13;;;;;;;5.53;1.60;;;;;;;;;;5033097;28;20025;-37
2022/04/13 07:06:38;;;;;;;1.70;1.10;;;;;;;;;;5033321;28;20029;-37
2022/04/13 07:09:03;;;;;;;3.22;1.52;;;;;;;;;;5033064;28;20014;-36
2022/04/13 07:11:29;;;;;;;1.42;1.05;;;;;;;;;;5032946;28;20029;-37
2022/04/13 07:13:55;;;;;;;1.45;1.35;;;;;;;;;;5032904;28;20100;-36
2022/04/13 07:16:21;;;;;;;1.55;1.40;;;;;;;;;;5032838;28;20416;-37
2022/04/13 07:18:46;;;;;;;3.90;1.63;;;;;;;;;;5032772;28;20029;-36
2022/04/13 07:21:11;;;;;;;4.05;1.50;;;;;;;;;;5033120;28;20061;-37
2022/04/13 07:23:37;;;;;;;7.45;1.73;;;;;;;;;;5032730;28;20071;-36
2022/04/13 07:26:02;;;;;;;8.27;2.28;;;;;;;;;;5033264;28;20028;-37
2022/04/13 07:28:28;;;;;;;1.90;1.48;;;;;;;;;;5032749;28;20451;-37
2022/04/13 07:30:54;;;;;;;6.70;1.52;;;;;;;;;;5031287;28;20072;-37
2022/04/13 07:33:19;;;;;;;2.22;1.50;;;;;;;;;;5032826;28;20028;-36
2022/04/13 07:35:45;;;;;;;3.15;1.65;;;;;;;;;;5032445;28;20383;-36
2022/04/13 07:38:10;;;;;;;1.73;1.55;;;;;;;;;;5032627;28;20021;-36
2022/04/13 07:40:36;;;;;;;2.58;2.13;;;;;;;;;;5032254;28;20036;-36
2022/04/13 07:43:01;;;;;;;2.50;1.90;;;;;;;;;;5032693;28;20021;-36
2022/04/13 07:45:27;;;;;;;2.70;1.40;;;;;;;;;;5032317;28;20049;-38
2022/04/13 07:47:53;;;;;;;2.97;1.52;;;;;;;;;;5032563;28;20049;-37
2022/04/13 07:50:18;;;;;;;2.45;1.40;;;;;;;;;;5032311;28;20541;-37
2022/04/13 07:52:43;;;;;;;1.75;1.42;;;;;;;;;;5032429;28;20044;-36
2022/04/13 07:55:09;;;;;;;2.60;1.35;;;;;;;;;;5032491;28;20029;-37
2022/04/13 07:57:36;;;;;;;2.00;1.58;;;;;;;;;;5032000;28;20495;-37
2022/04/13 08:00:02;;;;;;;1.95;1.75;;;;;;;;;;5032117;28;20075;-37
2022/04/13 08:02:39;;;;;;;5.55;1.92;;;;;;;;;;5032010;28;20079;-37
2022/04/13 08:05:05;;;;;;;3.05;1.02;;;;;;;;;;5031949;28;20025;-37
2022/04/13 08:07:30;;;;;;;5.10;1.27;;;;;;;;;;5031871;28;20018;-37
2022/04/13 08:09:56;;;;;;;4.88;1.63;;;;;;;;;;5031880;28;20103;-36
2022/04/13 08:12:22;;;;;;;10.18;1.63;;;;;;;;;;5031894;28;20143;-36
2022/04/13 08:14:47;;;;;;;1.40;1.30;;;;;;;;;;5031763;28;20029;-36
2022/04/13 08:17:14;;;;;;;2.92;1.60;;;;;;;;;;5031709;28;20029;-37
2022/04/13 08:19:39;;;;;;;5.18;1.73;;;;;;;;;;5031785;28;20519;-36
2022/04/13 08:22:05;;;;;;;1.88;1.58;;;;;;;;;;5031740;28;20061;-36
2022/04/13 08:24:30;;;;;;;1.35;1.17;;;;;;;;;;5031583;28;20025;-36
2022/04/13 08:26:59;;;;;;;3.53;1.48;;;;;;;;;;5030520;28;20029;-37
2022/04/13 08:29:24;;;;;;;2.25;1.63;;;;;;;;;;5031650;28;20049;-37
2022/04/13 08:31:50;;;;;;;2.20;1.40;;;;;;;;;;5031829;28;20025;-36
2022/04/13 08:34:19;;;;;;;3.97;1.92;;;;;;;;;;5031485;28;20518;-37
2022/04/13 08:36:44;;;;;;;2.58;1.40;;;;;;;;;;5031362;28;20041;-37
2022/04/13 08:39:13;;;;;;;2.53;1.80;;;;;;;;;;5031556;28;20152;-36
2022/04/13 08:41:39;;;;;;;3.78;2.60;;;;;;;;;;5031643;28;20071;-37
2022/04/13 08:44:10;;;;;;;6.82;2.33;;;;;;;;;;5030995;28;20057;-36
2022/04/13 08:46:37;;;;;;;10.50;2.53;;;;;;;;;;5031150;28;20053;-36
2022/04/13 08:49:04;;;;;;;5.60;2.50;;;;;;;;;;5031374;28;20388;-36
2022/04/13 08:51:30;;;;;;;7.65;2.25;;;;;;;;;;5031358;28;20511;-36
2022/04/13 08:54:17;;;;;;;3.17;2.17;;;;;;;;;;5031641;28;20056;-37
2022/04/13 08:56:44;;;;;;;5.30;2.60;;;;;;;;;;5031278;28;20124;-37
2022/04/13 08:59:34;;;;;;;4.63;2.67;;;;;;;;;;5031177;28;20028;-36
2022/04/13 09:02:19;;;;;;;5.28;2.70;;;;;;;;;;5031557;28;20038;-37
2022/04/13 09:04:45;;;;;;;7.18;3.08;;;;;;;;;;5029844;28;20037;-36
2022/04/13 09:07:13;;;;;;;7.88;3.47;;;;;;;;;;5031557;28;20345;-37
2022/04/13 09:09:43;;;;;;;8.00;3.13;;;;;;;;;;5031175;28;20038;-36
2022/04/13 09:12:09;;;;;;;5.75;2.92;;;;;;;;;;5031466;28;20028;-37
2022/04/13 09:14:34;;;;;;;11.70;3.92;;;;;;;;;;5031078;28;20053;-36
2022/04/13 09:17:01;;;;;;;7.93;3.25;;;;;;;;;;5031083;28;20064;-37
2022/04/13 09:19:26;;;;;;;8.02;3.53;;;;;;;;;;5031193;28;20029;-37
2022/04/13 09:21:52;;;;;;;9.98;3.85;;;;;;;;;;5031042;28;20030;-36
2022/04/13 09:24:18;;;;;;;11.50;4.20;;;;;;;;;;5031363;28;20036;-37
2022/04/13 09:26:45;;;;;;;9.23;3.67;;;;;;;;;;5031311;28;20045;-37
2022/04/13 09:29:11;;;;;;;12.70;4.32;;;;;;;;;;5031007;28;20037;-39
2022/04/13 09:31:36;;;;;;;11.93;3.70;;;;;;;;;;5030947;28;20037;-36
2022/04/13 09:34:02;;;;;;;10.63;3.95;;;;;;;;;;5031221;28;20088;-37
2022/04/13 09:36:28;;;;;;;8.98;3.35;;;;;;;;;;5030873;28;20372;-37
2022/04/13 09:38:54;;;;;;;7.38;3.55;;;;;;;;;;5030972;28;20044;-37
2022/04/13 09:41:31;;;;;;;8.80;3.65;;;;;;;;;;5030900;28;20056;-37
2022/04/13 09:43:56;;;;;;;8.85;3.95;;;;;;;;;;5030914;28;20029;-36
2022/04/13 09:46:25;;;;;;;8.43;4.20;;;;;;;;;;5030759;28;20056;-37
2022/04/13 09:49:06;;;;;;;6.88;3.78;;;;;;;;;;5030760;28;20041;-36
2022/04/13 09:51:38;;;;;;;9.32;3.85;;;;;;;;;;5030792;28;20033;-37
2022/04/13 09:54:08;;;;;;;7.10;3.45;;;;;;;;;;5031072;28;20040;-37
2022/04/13 09:56:35;;;;;;;9.18;3.92;;;;;;;;;;5033692;28;20065;-37
2022/04/13 09:59:00;;;;;;;7.15;3.13;;;;;;;;;;5034711;28;20400;-36
2022/04/13 10:01:26;;;;;;;6.07;3.25;;;;;;;;;;5034629;28;20021;-37
2022/04/13 10:03:57;;;;;;;4.47;2.67;;;;;;;;;;5034093;28;20943;-37
2022/04/13 10:06:33;;;;;;;5.65;3.40;;;;;;;;;;5034304;28;20025;-36
2022/04/13 10:09:05;;;;;;;9.07;3.38;;;;;;;;;;5034341;28;20028;-37
2022/04/13 10:11:31;;;;;;;7.63;3.22;;;;;;;;;;5034158;28;20041;-36
2022/04/13 10:14:00;;;;;;;15.38;4.18;;;;;;;;;;5034010;28;20177;-36
2022/04/13 10:16:30;;;;;;;9.38;3.45;;;;;;;;;;5034000;28;20041;-37
2022/04/13 10:18:56;;;;;;;5.78;3.40;;;;;;;;;;5034183;28;20025;-37
2022/04/13 10:21:34;;;;;;;5.28;2.60;;;;;;;;;;5034054;28;20521;-36
2022/04/13 10:23:59;;;;;;;8.95;3.15;;;;;;;;;;5033878;28;20025;-36
2022/04/13 10:26:24;;;;;;;9.45;3.33;;;;;;;;;;5034168;28;20017;-36
2022/04/13 10:28:50;;;;;;;5.22;2.63;;;;;;;;;;5033878;28;20411;-39
2022/04/13 10:31:15;;;;;;;8.88;3.58;;;;;;;;;;5033662;28;20028;-37
2022/04/13 10:33:45;;;;;;;10.57;3.63;;;;;;;;;;5033646;28;20033;-37
2022/04/13 10:36:10;;;;;;;9.40;2.65;;;;;;;;;;5033659;28;20025;-38
2022/04/13 10:38:36;;;;;;;6.82;3.00;;;;;;;;;;5033460;28;20577;-36
2022/04/13 10:41:02;;;;;;;7.68;3.53;;;;;;;;;;5033629;28;20017;-37
2022/04/13 10:43:27;;;;;;;8.77;3.55;;;;;;;;;;5033767;28;20033;-37
2022/04/13 10:45:53;;;;;;;5.43;2.97;;;;;;;;;;5033215;28;20049;-37
2022/04/13 10:48:24;;;;;;;8.77;3.08;;;;;;;;;;5033504;28;20038;-37
2022/04/13 10:50:50;;;;;;;6.40;3.42;;;;;;;;;;5033664;28;20033;-37
2022/04/13 10:53:27;;;;;;;10.43;3.03;;;;;;;;;;5033544;28;20349;-36
2022/04/13 10:55:58;;;;;;;8.40;3.33;;;;;;;;;;5033147;28;20092;-37
2022/04/13 10:58:31;;;;;;;7.35;3.60;;;;;;;;;;5033376;28;20072;-37
2022/04/13 11:01:04;;;;;;;8.65;3.22;;;;;;;;;;5033094;28;20116;-37
2022/04/13 11:03:35;;;;;;;8.38;2.67;;;;;;;;;;5033332;28;20029;-37
2022/04/13 11:06:06;;;;;;;6.22;3.50;;;;;;;;;;5033062;28;20085;-37
2022/04/13 11:08:44;;;;;;;9.15;3.83;;;;;;;;;;5032902;28;20038;-37
2022/04/13 11:11:17;;;;;;;5.97;3.13;;;;;;;;;;5033115;28;20026;-37
2022/04/13 11:13:44;;;;;;;6.65;3.97;;;;;;;;;;5032832;28;20490;-37
2022/04/13 11:16:15;;;;;;;9.38;4.38;;;;;;;;;;5031623;28;20036;-37
2022/04/13 11:18:41;;;;;;;7.63;2.97;;;;;;;;;;5032897;28;20112;-37
2022/04/13 11:21:08;;;;;;;8.02;3.80;;;;;;;;;;5032787;28;20091;-37
2022/04/13 11:23:50;;;;;;;9.68;3.58;;;;;;;;;;5033038;28;20033;-36
2022/04/13 11:26:34;;;;;;;3.88;2.58;;;;;;;;;;5032828;28;20029;-37
2022/04/13 11:29:09;;;;;;;5.60;3.28;;;;;;;;;;5032751;28;20039;-37
2022/04/13 11:31:53;;;;;;;4.82;2.67;;;;;;;;;;5032622;28;20029;-37
2022/04/13 11:34:26;;;;;;;7.15;2.47;;;;;;;;;;5032849;28;20060;-37
2022/04/13 11:36:51;;;;;;;;;;;;;;;;;;5033095;28;20064;-37
2022/04/13 11:39:37;;;;;;;4.80;3.13;;;;;;;;;;5032858;28;20359;-37
2022/04/13 11:42:02;;;;;;;6.32;3.13;;;;;;;;;;5032388;28;20108;-37
2022/04/13 11:44:45;;;;;;;5.57;2.42;;;;;;;;;;5032641;28;20108;-37
2022/04/13 11:47:14;;;;;;;8.45;3.60;;;;;;;;;;5032469;28;20052;-37
2022/04/13 11:49:56;;;;;;;6.40;2.10;;;;;;;;;;5032212;28;20030;-37
2022/04/13 11:52:57;;;;;;;6.47;2.75;;;;;;;;;;5032256;28;20103;-37
2022/04/13 11:55:23;;;;;;;6.38;2.80;;;;;;;;;;5029845;28;20060;-37
2022/04/13 11:58:02;;;;;;;7.85;2.65;;;;;;;;;;5031809;28;20484;-37
2022/04/13 12:00:47;;;;;;;6.22;3.65;;;;;;;;;;5032498;28;20033;-37
2022/04/13 12:03:13;;;;;;;10.60;3.25;;;;;;;;;;5032030;28;20049;-37
2022/04/13 12:05:40;;;;;;;6.13;3.15;;;;;;;;;;5031954;28;20076;-37
2022/04/13 12:08:13;;;;;;;5.15;2.00;;;;;;;;;;5032288;28;20025;-37
2022/04/13 12:10:39;;;;;;;6.78;2.83;;;;;;;;;;5032187;28;20037;-37
2022/04/13 12:13:04;;;;;;;8.00;3.08;;;;;;;;;;5032122;28;20052;-37
2022/04/13 12:15:53;;;;;;;7.38;3.70;;;;;;;;;;5032305;28;20029;-37
2022/04/13 12:18:19;;;;;;;6.50;2.47;;;;;;;;;;5031088;28;20044;-37
2022/04/13 12:20:45;;;;;;;5.63;3.33;;;;;;;;;;5031743;28;20072;-37
2022/04/13 12:23:20;;;;;;;5.60;3.20;;;;;;;;;;5031722;28;20037;-37
2022/04/13 12:25:47;;;;;;;5.57;2.83;;;;;;;;;;5031618;28;20036;-37
2022/04/13 12:28:13;;;;;;;6.07;3.17;;;;;;;;;;5031670;28;20068;-37
2022/04/13 12:30:39;;;;;;;8.43;3.22;;;;;;;;;;5031887;28;20025;-37
2022/04/13 12:33:16;;;;;;;6.47;3.40;;;;;;;;;;5031807;28;20384;-37
2022/04/13 12:36:02;;;;;;;5.93;2.85;;;;;;;;;;5031468;28;20037;-37
2022/04/13 12:38:29;;;;;;;6.97;3.17;;;;;;;;;;5031866;28;20056;-37
2022/04/13 12:41:00;;;;;;;9.63;3.30;;;;;;;;;;5031472;28;20021;-37
2022/04/13 12:43:29;;;;;;;5.75;4.05;;;;;;;;;;5031536;28;20021;-37
2022/04/13 12:45:55;;;;;;;9.35;3.65;;;;;;;;;;5031475;28;20124;-37
2022/04/13 12:48:26;;;;;;;7.05;3.80;;;;;;;;;;5031420;28;20044;-37
2022/04/13 12:50:57;;;;;;;5.95;3.22;;;;;;;;;;5031530;28;20519;-37
2022/04/13 12:53:23;;;;;;;8.55;4.10;;;;;;;;;;5031559;28;20026;-37
2022/04/13 12:55:55;;;;;;;8.10;3.88;;;;;;;;;;5031442;28;20108;-37
2022/04/13 12:58:21;;;;;;;5.38;3.95;;;;;;;;;;5031324;28;20072;-37
2022/04/13 13:00:47;;;;;;;8.95;3.97;;;;;;;;;;5031174;28;20029;-37
2022/04/13 13:03:13;;;;;;;5.30;3.08;;;;;;;;;;5031593;28;20427;-38
2022/04/13 13:05:39;;;;;;;6.43;3.95;;;;;;;;;;5031263;28;20105;-37
2022/04/13 13:08:05;;;;;;;7.65;2.85;;;;;;;;;;5031239;28;20037;-37
2022/04/13 13:10:33;;;;;;;5.15;3.10;;;;;;;;;;5031253;28;20017;-37
2022/04/13 13:13:18;;;;;;;8.43;2.88;;;;;;;;;;5031024;28;20033;-37
2022/04/13 13:15:44;;;;;;;8.00;3.13;;;;;;;;;;5031256;28;20490;-37
2022/04/13 13:18:10;;;;;;;7.40;3.42;;;;;;;;;;5031391;28;20026;-37
2022/04/13 13:20:51;;;;;;;6.10;2.83;;;;;;;;;;5031158;28;20026;-37
2022/04/13 13:23:21;;;;;;;8.13;3.03;;;;;;;;;;5031070;28;20030;-37
2022/04/13 13:25:47;;;;;;;7.72;3.72;;;;;;;;;;5031339;28;20423;-37
2022/04/13 13:28:12;;;;;;;6.68;3.40;;;;;;;;;;5031386;28;20033;-37
2022/04/13 13:30:45;;;;;;;13.63;3.95;;;;;;;;;;5034436;28;20018;-37
2022/04/13 13:33:11;;;;;;;6.50;3.83;;;;;;;;;;5034954;28;20030;-37
2022/04/13 13:35:38;;;;;;;7.82;3.63;;;;;;;;;;5034772;28;20586;-37
2022/04/13 13:38:08;;;;;;;7.25;2.75;;;;;;;;;;5034813;28;20407;-37
2022/04/13 13:40:35;;;;;;;6.82;3.70;;;;;;;;;;5034719;28;20022;-37
2022/04/13 13:43:01;;;;;;;8.48;3.75;;;;;;;;;;5034610;28;20203;-37
2022/04/13 13:45:28;;;;;;;7.25;3.00;;;;;;;;;;5034493;28;20053;-37
2022/04/13 13:47:54;;;;;;;6.13;3.45;;;;;;;;;;5034600;28;20034;-37
2022/04/13 13:50:19;;;;;;;7.75;2.92;;;;;;;;;;5033627;28;20029;-37
2022/04/13 13:52:45;;;;;;;6.90;3.58;;;;;;;;;;5034404;28;20019;-37
2022/04/13 13:55:10;;;;;;;8.35;3.13;;;;;;;;;;5034459;28;20119;-37
2022/04/13 13:57:36;;;;;;;7.25;2.58;;;;;;;;;;5034263;28;20498;-37
2022/04/13 14:00:02;;;;;;;5.72;3.20;;;;;;;;;;5034421;28;20033;-37
2022/04/13 14:02:34;;;;;;;7.95;2.55;;;;;;;;;;5034426;28;20049;-37
2022/04/13 14:05:00;;;;;;;6.13;3.03;;;;;;;;;;5034042;28;20018;-37
2022/04/13 14:07:26;;;;;;;11.30;3.88;;;;;;;;;;5034578;28;20521;-37
2022/04/13 14:09:52;;;;;;;11.15;2.88;;;;;;;;;;5034141;28;20042;-37
2022/04/13 14:12:17;;;;;;;8.18;3.45;;;;;;;;;;5033941;28;20022;-37
2022/04/13 14:14:43;;;;;;;8.85;3.67;;;;;;;;;;5034388;28;20036;-37
2022/04/13 14:17:09;;;;;;;5.55;2.85;;;;;;;;;;5033986;28;20083;-37
2022/04/13 14:19:34;;;;;;;5.85;3.35;;;;;;;;;;5033995;28;20391;-37
2022/04/13 14:22:00;;;;;;;8.45;3.65;;;;;;;;;;5034165;28;20029;-37
2022/04/13 14:24:26;;;;;;;5.68;2.45;;;;;;;;;;5034110;28;20029;-37
2022/04/13 14:26:51;;;;;;;4.47;1.60;;;;;;;;;;5034093;28;20029;-37
2022/04/13 14:29:17;;;;;;;9.93;3.53;;;;;;;;;;5033839;28;20022;-37
2022/04/13 14:31:43;;;;;;;5.88;3.15;;;;;;;;;;5033997;28;20048;-37
2022/04/13 14:34:09;;;;;;;7.32;3.28;;;;;;;;;;5033733;28;20029;-37
2022/04/13 14:36:34;;;;;;;6.68;3.13;;;;;;;;;;5033671;28;20601;-37
2022/04/13 14:39:00;;;;;;;9.23;3.22;;;;;;;;;;5033698;28;20155;-37
2022/04/13 14:41:25;;;;;;;10.43;2.90;;;;;;;;;;5033114;28;20043;-38
2022/04/13 14:43:52;;;;;;;11.20;4.07;;;;;;;;;;5033605;28;20029;-37